| time (UTC) | temp F | wind direction | speed MPH | gust MPH | rain 1hr in | rain 24hr in | rain mn in | humidity % | barometer mb |
| 20260905182601 | 95 | 269 | 0.0 | 0.0 | 0.00 | 0.02 | 0.02 | 56 | 1014.5 |
| 20260905182056 | 94 | 252 | 0.0 | 0.0 | 0.00 | 0.02 | 0.02 | 57 | 1014.4 |
| 20260905181556 | 94 | 244 | 1.0 | 1.0 | 0.00 | 0.02 | 0.02 | 56 | 1014.5 |
| 20260905181055 | 94 | 213 | 2.0 | 2.0 | 0.00 | 0.02 | 0.02 | 57 | 1014.5 |
| 20260905180550 | 94 | 277 | 0.0 | 0.0 | 0.00 | 0.02 | 0.02 | 57 | 1014.4 |
| 20260905180046 | 93 | 244 | 1.0 | 2.0 | 0.00 | 0.02 | 0.02 | 57 | 1014.6 |
| 20260905175545 | 93 | 287 | 2.0 | 2.0 | 0.00 | 0.02 | 0.02 | 56 | 1014.8 |
| 20260905175041 | 93 | 297 | 1.0 | 1.0 | 0.00 | 0.02 | 0.02 | 57 | 1014.5 |
| 20260905174536 | 92 | 250 | 0.0 | 0.0 | 0.00 | 0.02 | 0.02 | 59 | 1014.8 |
| 20260905174031 | 92 | 209 | 2.0 | 2.0 | 0.00 | 0.02 | 0.02 | 59 | 1014.8 |
| 20260905173529 | 93 | 236 | 2.0 | 3.0 | 0.00 | 0.02 | 0.02 | 57 | 1015.1 |
| 20260905173029 | 93 | 253 | 1.0 | 1.0 | 0.00 | 0.02 | 0.02 | 57 | 1015.1 |
| 20260905172527 | 93 | 202 | 2.0 | 4.0 | 0.00 | 0.02 | 0.02 | 57 | 1015.0 |
| 20260905172023 | 93 | 257 | 1.0 | 1.0 | 0.00 | 0.02 | 0.02 | 56 | 1015.0 |
| 20260905171519 | 93 | 257 | 0.0 | 1.0 | 0.00 | 0.02 | 0.02 | 57 | 1015.0 |
| 20260905171015 | 92 | 245 | 1.0 | 1.0 | 0.00 | 0.02 | 0.02 | 58 | 1015.2 |
| 20260905170511 | 92 | 249 | 0.0 | 1.0 | 0.00 | 0.02 | 0.02 | 58 | 1015.0 |
| 20260905170006 | 91 | 246 | 3.0 | 4.0 | 0.00 | 0.02 | 0.02 | 60 | 1015.2 |
| 20260905165501 | 91 | 246 | 1.0 | 1.0 | 0.00 | 0.02 | 0.02 | 60 | 1015.2 |
| 20260905164956 | 90 | 248 | 1.0 | 1.0 | 0.00 | 0.02 | 0.02 | 62 | 1015.3 |
| 20260905164455 | 90 | 212 | 3.0 | 4.0 | 0.00 | 0.02 | 0.02 | 60 | 1015.3 |
| 20260905163950 | 90 | 238 | 2.0 | 2.0 | 0.00 | 0.02 | 0.02 | 60 | 1015.5 |
| 20260905163447 | 90 | 202 | 3.0 | 3.0 | 0.00 | 0.02 | 0.02 | 63 | 1015.3 |
| 20260905162943 | 89 | 246 | 2.0 | 3.0 | 0.00 | 0.02 | 0.02 | 62 | 1015.3 |
| 20260905162438 | 89 | 241 | 1.0 | 1.0 | 0.00 | 0.02 | 0.02 | 62 | 1015.6 |
| 20260905161932 | 89 | 246 | 2.0 | 4.0 | 0.00 | 0.02 | 0.02 | 61 | 1015.6 |
| 20260905161432 | 89 | 240 | 2.0 | 2.0 | 0.00 | 0.02 | 0.02 | 62 | 1015.7 |
| 20260905160930 | 89 | 243 | 2.0 | 3.0 | 0.00 | 0.02 | 0.02 | 62 | 1015.5 |
| 20260905160424 | 88 | 228 | 2.0 | 3.0 | 0.00 | 0.02 | 0.02 | 63 | 1015.7 |
| 20260905155918 | 88 | 226 | 3.0 | 3.0 | 0.00 | 0.02 | 0.02 | 65 | 1015.8 |
| 20260905155418 | 87 | 242 | 2.0 | 3.0 | 0.00 | 0.02 | 0.02 | 65 | 1015.5 |
| 20260905154917 | 87 | 244 | 2.0 | 3.0 | 0.00 | 0.02 | 0.02 | 65 | 1015.7 |
| 20260905154413 | 86 | 233 | 2.0 | 2.0 | 0.00 | 0.02 | 0.02 | 66 | 1015.8 |
| 20260905153908 | 86 | 235 | 3.0 | 3.0 | 0.00 | 0.02 | 0.02 | 66 | 1015.8 |
| 20260905153405 | 86 | 239 | 2.0 | 2.0 | 0.00 | 0.02 | 0.02 | 65 | 1015.9 |
| 20260905152904 | 85 | 225 | 3.0 | 4.0 | 0.00 | 0.02 | 0.02 | 67 | 1016.0 |
| 20260905152403 | 85 | 149 | 2.0 | 3.0 | 0.00 | 0.02 | 0.02 | 69 | 1015.8 |
| 20260905151858 | 85 | 230 | 3.0 | 3.0 | 0.00 | 0.02 | 0.02 | 69 | 1015.8 |
| 20260905151354 | 84 | 204 | 2.0 | 3.0 | 0.00 | 0.02 | 0.02 | 70 | 1015.9 |
| 20260905150854 | 84 | 222 | 2.0 | 3.0 | 0.00 | 0.02 | 0.02 | 71 | 1016.1 |
| 20260905150349 | 83 | 214 | 3.0 | 3.0 | 0.00 | 0.02 | 0.02 | 70 | 1015.9 |
| 20260905145846 | 83 | 223 | 3.0 | 4.0 | 0.00 | 0.02 | 0.02 | 72 | 1016.3 |
| 20260905145341 | 83 | 237 | 2.0 | 3.0 | 0.00 | 0.02 | 0.02 | 72 | 1016.1 |
| 20260905144839 | 82 | 214 | 2.0 | 3.0 | 0.00 | 0.02 | 0.02 | 73 | 1016.2 |
| 20260905144335 | 82 | 3 | 2.0 | 3.0 | 0.00 | 0.02 | 0.02 | 74 | 1016.1 |
| 20260905143833 | 82 | 231 | 3.0 | 3.0 | 0.00 | 0.02 | 0.02 | 74 | 1016.1 |
| 20260905143328 | 82 | 204 | 2.0 | 3.0 | 0.00 | 0.02 | 0.02 | 74 | 1016.3 |
| 20260905142827 | 81 | 209 | 2.0 | 2.0 | 0.00 | 0.02 | 0.02 | 78 | 1016.3 |
| 20260905142321 | 81 | 214 | 1.0 | 2.0 | 0.00 | 0.02 | 0.02 | 79 | 1016.5 |
| 20260905141812 | 80 | 229 | 3.0 | 4.0 | 0.00 | 0.02 | 0.02 | 79 | 1016.4 |
| 20260905141307 | 79 | 207 | 2.0 | 3.0 | 0.00 | 0.02 | 0.02 | 80 | 1016.4 |
| 20260905140802 | 80 | 220 | 2.0 | 2.0 | 0.00 | 0.02 | 0.02 | 79 | 1016.6 |
| 20260905140302 | 80 | 226 | 2.0 | 2.0 | 0.00 | 0.02 | 0.02 | 78 | 1016.4 |
| 20260905135801 | 79 | 308 | 1.0 | 1.0 | 0.00 | 0.02 | 0.02 | 78 | 1016.7 |
| 20260905135252 | 79 | 228 | 1.0 | 1.0 | 0.00 | 0.02 | 0.02 | 79 | 1016.5 |
| 20260905134751 | 79 | 235 | 3.0 | 4.0 | 0.00 | 0.02 | 0.02 | 79 | 1016.3 |
| 20260905134245 | 78 | 228 | 1.0 | 1.0 | 0.00 | 0.02 | 0.02 | 83 | 1016.4 |
| 20260905133740 | 78 | 207 | 3.0 | 4.0 | 0.00 | 0.02 | 0.02 | 85 | 1016.5 |
| 20260905133235 | 78 | 242 | 1.0 | 2.0 | 0.00 | 0.02 | 0.02 | 86 | 1016.6 |
| 20260905132734 | 77 | 200 | 2.0 | 3.0 | 0.00 | 0.02 | 0.02 | 87 | 1016.6 |
| 20260905132229 | 77 | 275 | 1.0 | 1.0 | 0.00 | 0.02 | 0.02 | 90 | 1016.6 |
| 20260905131725 | 77 | 260 | 0.0 | 0.0 | 0.00 | 0.02 | 0.02 | 92 | 1016.5 |
| 20260905131220 | 77 | 80 | 1.0 | 1.0 | 0.00 | 0.02 | 0.02 | 95 | 1016.6 |
| 20260905130720 | 76 | 224 | 1.0 | 2.0 | 0.00 | 0.02 | 0.02 | 97 | 1016.4 |
| 20260905130219 | 76 | 19 | 5.0 | 7.0 | 0.00 | 0.02 | 0.02 | 98 | 1016.5 |
| 20260905125714 | 76 | 271 | 0.0 | 0.0 | 0.00 | 0.02 | 0.02 | 98 | 1015.7 |
| 20260905125204 | 76 | 270 | 0.0 | 0.0 | 0.00 | 0.02 | 0.02 | 98 | 1015.6 |
| 20260905124701 | 76 | 270 | 0.0 | 0.0 | 0.00 | 0.02 | 0.02 | 98 | 1015.6 |
| 20260905124156 | 76 | 270 | 0.0 | 0.0 | 0.00 | 0.02 | 0.02 | 98 | 1015.8 |
| 20260905123651 | 75 | 271 | 0.0 | 0.0 | 0.00 | 0.02 | 0.02 | 98 | 1015.9 |
| 20260905123148 | 75 | 271 | 0.0 | 0.0 | 0.00 | 0.02 | 0.02 | 98 | 1015.7 |
| 20260905122648 | 75 | 271 | 0.0 | 0.0 | 0.00 | 0.02 | 0.02 | 98 | 1015.5 |
| 20260905122143 | 75 | 271 | 0.0 | 0.0 | 0.00 | 0.02 | 0.02 | 98 | 1015.6 |
| 20260905121642 | 74 | 271 | 0.0 | 0.0 | 0.00 | 0.02 | 0.02 | 98 | 1015.3 |
| 20260905121138 | 74 | 270 | 0.0 | 0.0 | 0.00 | 0.02 | 0.02 | 98 | 1015.4 |
| 20260905120637 | 74 | 271 | 0.0 | 0.0 | 0.00 | 0.02 | 0.02 | 98 | 1015.2 |
| 20260905120132 | 74 | 271 | 0.0 | 0.0 | 0.00 | 0.02 | 0.02 | 98 | 1015.5 |
| 20260905115631 | 74 | 270 | 0.0 | 0.0 | 0.00 | 0.02 | 0.02 | 98 | 1015.5 |
| 20260905115127 | 74 | 271 | 0.0 | 0.0 | 0.00 | 0.02 | 0.02 | 98 | 1015.5 |
| 20260905114626 | 74 | 271 | 0.0 | 0.0 | 0.00 | 0.02 | 0.02 | 98 | 1015.5 |
| 20260905114125 | 74 | 271 | 0.0 | 0.0 | 0.00 | 0.02 | 0.02 | 98 | 1015.6 |
| 20260905113620 | 74 | 271 | 0.0 | 0.0 | 0.00 | 0.02 | 0.02 | 98 | 1015.3 |
| 20260905113116 | 74 | 271 | 0.0 | 0.0 | 0.00 | 0.02 | 0.02 | 98 | 1015.4 |
| 20260905112618 | 74 | 271 | 0.0 | 0.0 | 0.00 | 0.02 | 0.02 | 98 | 1015.5 |
| 20260905112112 | 74 | 271 | 0.0 | 0.0 | 0.00 | 0.02 | 0.02 | 98 | 1015.3 |
| 20260905111606 | 74 | 272 | 0.0 | 0.0 | 0.00 | 0.02 | 0.02 | 98 | 1015.3 |
| 20260905111105 | 74 | 272 | 0.0 | 0.0 | 0.00 | 0.02 | 0.02 | 98 | 1015.3 |
| 20260905110604 | 74 | 271 | 0.0 | 0.0 | 0.00 | 0.02 | 0.02 | 98 | 1015.2 |
| 20260905110100 | 74 | 273 | 0.0 | 0.0 | 0.05 | 0.02 | 0.02 | 97 | 1014.9 |
| 20260905105554 | 74 | 273 | 0.0 | 0.0 | 0.05 | 0.02 | 0.02 | 97 | 1014.9 |
| 20260905105053 | 74 | 273 | 0.0 | 0.0 | 0.00 | 0.01 | 0.01 | 97 | 1014.5 |
| 20260905104550 | 74 | 274 | 0.0 | 0.0 | 0.00 | 0.01 | 0.01 | 97 | 1014.8 |
| 20260905104049 | 74 | 279 | 0.0 | 0.0 | 0.07 | 0.01 | 0.01 | 97 | 1014.5 |
| 20260905103544 | 74 | 303 | 0.0 | 1.0 | 0.07 | 0.01 | 0.01 | 97 | 1014.5 |
| 20260905103041 | 73 | 262 | 0.0 | 0.0 | 0.07 | 0.01 | 0.01 | 97 | 1014.5 |
| 20260905102536 | 73 | 298 | 0.0 | 0.0 | 0.00 | 0.00 | 0.00 | 97 | 1014.9 |
| 20260905102032 | 73 | 250 | 0.0 | 0.0 | 0.00 | 0.00 | 0.00 | 97 | 1014.6 |
| 20260905101531 | 73 | 250 | 0.0 | 0.0 | 0.00 | 0.00 | 0.00 | 97 | 1014.5 |
| 20260905101029 | 73 | 250 | 0.0 | 0.0 | 0.00 | 0.00 | 0.00 | 97 | 1014.9 |
| 20260905100526 | 73 | 250 | 0.0 | 0.0 | 0.00 | 0.00 | 0.00 | 97 | 1014.9 |
| 20260905100025 | 74 | 250 | 0.0 | 0.0 | 0.00 | 0.00 | 0.00 | 96 | 1014.6 |
| 20260905095520 | 74 | 250 | 0.0 | 0.0 | 0.00 | 0.00 | 0.00 | 96 | 1014.6 |
| 20260905095015 | 74 | 250 | 0.0 | 0.0 | 0.00 | 0.00 | 0.00 | 96 | 1014.8 |
| 20260905094510 | 74 | 250 | 0.0 | 0.0 | 0.00 | 0.00 | 0.00 | 96 | 1014.9 |
| 20260905094009 | 74 | 250 | 0.0 | 0.0 | 0.00 | 0.00 | 0.00 | 96 | 1014.8 |
| 20260905093504 | 74 | 250 | 0.0 | 0.0 | 0.00 | 0.00 | 0.00 | 96 | 1014.6 |
| 20260905093000 | 74 | 250 | 0.0 | 0.0 | 0.00 | 0.00 | 0.00 | 96 | 1014.3 |
| 20260905092455 | 74 | 250 | 0.0 | 0.0 | 0.00 | 0.00 | 0.00 | 95 | 1014.3 |
| 20260905091950 | 74 | 249 | 0.0 | 0.0 | 0.00 | 0.00 | 0.00 | 95 | 1014.1 |
| 20260905091444 | 74 | 250 | 0.0 | 0.0 | 0.00 | 0.00 | 0.00 | 95 | 1014.1 |
| 20260905090944 | 75 | 249 | 0.0 | 0.0 | 0.00 | 0.00 | 0.00 | 95 | 1014.2 |
| 20260905090439 | 75 | 249 | 0.0 | 0.0 | 0.00 | 0.00 | 0.00 | 94 | 1014.2 |
| 20260905085938 | 75 | 249 | 0.0 | 0.0 | 0.00 | 0.00 | 0.00 | 94 | 1014.1 |
| 20260905085438 | 75 | 249 | 0.0 | 0.0 | 0.00 | 0.00 | 0.00 | 94 | 1014.2 |
| 20260905084934 | 75 | 249 | 0.0 | 0.0 | 0.00 | 0.00 | 0.00 | 94 | 1014.0 |
| 20260905084433 | 75 | 249 | 0.0 | 0.0 | 0.00 | 0.00 | 0.00 | 93 | 1014.0 |
| 20260905083928 | 75 | 249 | 0.0 | 0.0 | 0.00 | 0.00 | 0.00 | 93 | 1013.9 |
| 20260905083424 | 75 | 249 | 0.0 | 0.0 | 0.00 | 0.00 | 0.00 | 93 | 1014.0 |
| 20260905082919 | 76 | 249 | 0.0 | 0.0 | 0.00 | 0.00 | 0.00 | 93 | 1013.9 |
| 20260905082415 | 76 | 249 | 0.0 | 0.0 | 0.00 | 0.00 | 0.00 | 92 | 1013.9 |
| 20260905081910 | 76 | 243 | 0.0 | 0.0 | 0.00 | 0.00 | 0.00 | 92 | 1013.8 |
| 20260905081405 | 76 | 243 | 0.0 | 0.0 | 0.00 | 0.00 | 0.00 | 92 | 1013.8 |
| 20260905080904 | 76 | 243 | 0.0 | 0.0 | 0.00 | 0.00 | 0.00 | 91 | 1013.8 |
| 20260905080359 | 76 | 243 | 0.0 | 0.0 | 0.00 | 0.00 | 0.00 | 91 | 1014.1 |
| 20260905075858 | 77 | 242 | 0.0 | 0.0 | 0.00 | 0.00 | 0.00 | 91 | 1014.0 |
| 20260905075357 | 77 | 242 | 0.0 | 0.0 | 0.00 | 0.00 | 0.00 | 91 | 1013.8 |
| 20260905074856 | 76 | 242 | 0.0 | 0.0 | 0.00 | 0.00 | 0.00 | 94 | 1013.8 |
| 20260905074352 | 76 | 240 | 0.0 | 0.0 | 0.00 | 0.00 | 0.00 | 97 | 1013.9 |
| 20260905073848 | 75 | 213 | 0.0 | 1.0 | 0.00 | 0.00 | 0.00 | 98 | 1014.1 |
| 20260905073343 | 75 | 268 | 0.0 | 0.0 | 0.00 | 0.00 | 0.00 | 98 | 1014.5 |
| 20260905072837 | 75 | 223 | 0.0 | 0.0 | 0.00 | 0.00 | 0.00 | 98 | 1014.1 |
| 20260905072332 | 75 | 223 | 0.0 | 0.0 | 0.00 | 0.00 | 0.00 | 98 | 1014.1 |
| 20260905071829 | 75 | 223 | 0.0 | 0.0 | 0.00 | 0.00 | 0.00 | 97 | 1014.1 |
| 20260905071325 | 75 | 223 | 0.0 | 0.0 | 0.00 | 0.00 | 0.00 | 98 | 1014.2 |
| 20260905070819 | 75 | 223 | 0.0 | 0.0 | 0.00 | 0.00 | 0.00 | 97 | 1014.5 |
| 20260905070316 | 75 | 223 | 0.0 | 0.0 | 0.00 | 0.00 | 0.00 | 97 | 1014.3 |
| 20260905065814 | 75 | 223 | 0.0 | 0.0 | 0.00 | 0.00 | 0.00 | 97 | 1014.5 |
| 20260905065313 | 75 | 223 | 0.0 | 0.0 | 0.00 | 0.00 | 0.00 | 97 | 1014.4 |
| 20260905064809 | 75 | 223 | 0.0 | 0.0 | 0.00 | 0.00 | 0.00 | 97 | 1014.5 |
| 20260905064304 | 75 | 223 | 0.0 | 0.0 | 0.00 | 0.00 | 0.00 | 97 | 1014.4 |
| 20260905063803 | 75 | 223 | 0.0 | 0.0 | 0.00 | 0.00 | 0.00 | 97 | 1014.5 |
| 20260905063259 | 75 | 223 | 0.0 | 0.0 | 0.00 | 0.00 | 0.00 | 97 | 1014.6 |
| 20260905062755 | 75 | 223 | 0.0 | 0.0 | 0.00 | 0.00 | 0.00 | 97 | 1014.9 |
| 20260905062254 | 75 | 223 | 0.0 | 0.0 | 0.00 | 0.00 | 0.00 | 97 | 1014.9 |
| 20260905061749 | 75 | 223 | 0.0 | 0.0 | 0.00 | 0.00 | 0.00 | 97 | 1014.9 |
| 20260905061244 | 75 | 223 | 0.0 | 0.0 | 0.00 | 0.00 | 0.00 | 97 | 1015.0 |
| 20260905060738 | 75 | 223 | 0.0 | 0.0 | 0.00 | 0.00 | 0.00 | 97 | 1014.8 |
| 20260905060235 | 75 | 223 | 0.0 | 0.0 | 0.00 | 0.00 | 0.00 | 97 | 1014.9 |
| 20260905055733 | 75 | 223 | 0.0 | 0.0 | 0.00 | 0.00 | 0.00 | 97 | 1014.9 |
| 20260905055229 | 75 | 223 | 0.0 | 0.0 | 0.00 | 0.00 | 0.00 | 97 | 1014.8 |
| 20260905054724 | 75 | 223 | 0.0 | 0.0 | 0.00 | 0.00 | 0.00 | 97 | 1014.9 |
| 20260905054221 | 75 | 223 | 0.0 | 0.0 | 0.00 | 0.00 | 0.00 | 97 | 1015.2 |
| 20260905053719 | 75 | 223 | 0.0 | 0.0 | 0.00 | 0.00 | 0.00 | 97 | 1015.1 |
| 20260905053215 | 75 | 223 | 0.0 | 0.0 | 0.00 | 0.00 | 0.00 | 97 | 1015.2 |
| 20260905052715 | 75 | 223 | 0.0 | 0.0 | 0.00 | 0.00 | 0.00 | 97 | 1015.1 |
| 20260905052209 | 75 | 223 | 0.0 | 0.0 | 0.00 | 0.00 | 0.00 | 97 | 1015.2 |
| 20260905051703 | 75 | 223 | 0.0 | 0.0 | 0.00 | 0.00 | 0.00 | 97 | 1015.1 |
| 20260905051200 | 75 | 223 | 0.0 | 0.0 | 0.00 | 0.00 | 0.00 | 96 | 1015.1 |
| 20260905050656 | 75 | 223 | 0.0 | 0.0 | 0.00 | 0.00 | 0.00 | 96 | 1015.3 |
| 20260905050153 | 75 | 223 | 0.0 | 0.0 | 0.00 | 0.00 | 0.00 | 96 | 1015.0 |
| 20260905045647 | 75 | 223 | 0.0 | 0.0 | 0.00 | 0.00 | 0.00 | 96 | 1015.0 |
| 20260905045143 | 75 | 223 | 0.0 | 0.0 | 0.00 | 0.00 | 0.00 | 96 | 1015.0 |
| 20260905044643 | 76 | 223 | 0.0 | 0.0 | 0.00 | 0.00 | 0.00 | 96 | 1015.1 |
| 20260905044137 | 76 | 223 | 0.0 | 0.0 | 0.00 | 0.00 | 0.00 | 96 | 1015.1 |
| 20260905043636 | 76 | 223 | 0.0 | 0.0 | 0.00 | 0.00 | 0.00 | 96 | 1015.0 |
| 20260905043131 | 76 | 223 | 0.0 | 0.0 | 0.00 | 0.00 | 0.00 | 96 | 1015.1 |
| 20260905042630 | 76 | 223 | 0.0 | 0.0 | 0.00 | 0.00 | 0.00 | 96 | 1015.2 |
| 20260905042125 | 76 | 223 | 0.0 | 0.0 | 0.00 | 0.00 | 0.00 | 96 | 1015.2 |
| 20260905041621 | 76 | 223 | 0.0 | 0.0 | 0.00 | 0.00 | 0.00 | 96 | 1015.2 |
| 20260905041116 | 76 | 223 | 0.0 | 0.0 | 0.00 | 0.00 | 0.00 | 96 | 1015.1 |
| 20260905040611 | 76 | 223 | 0.0 | 0.0 | 0.00 | 0.00 | 0.00 | 96 | 1015.2 |
| 20260905040110 | 77 | 223 | 0.0 | 0.0 | 0.00 | 0.00 | 0.00 | 95 | 1015.4 |
| 20260905035605 | 77 | 223 | 0.0 | 0.0 | 0.00 | 0.00 | 0.00 | 96 | 1015.4 |
| 20260905035102 | 77 | 223 | 0.0 | 0.0 | 0.00 | 0.00 | 0.00 | 96 | 1015.3 |
| 20260905034557 | 77 | 223 | 0.0 | 0.0 | 0.00 | 0.00 | 0.00 | 95 | 1015.4 |
| 20260905034056 | 77 | 223 | 0.0 | 0.0 | 0.00 | 0.00 | 0.00 | 95 | 1015.2 |
| 20260905033550 | 77 | 223 | 0.0 | 0.0 | 0.00 | 0.00 | 0.00 | 95 | 1015.2 |
| 20260905033046 | 77 | 223 | 0.0 | 0.0 | 0.00 | 0.00 | 0.00 | 95 | 1015.1 |
| 20260905032540 | 77 | 223 | 0.0 | 0.0 | 0.00 | 0.00 | 0.00 | 95 | 1015.2 |
| 20260905032035 | 77 | 223 | 0.0 | 0.0 | 0.00 | 0.00 | 0.00 | 95 | 1015.1 |
| 20260905031531 | 77 | 223 | 0.0 | 0.0 | 0.00 | 0.00 | 0.00 | 94 | 1015.1 |
| 20260905031031 | 78 | 223 | 0.0 | 0.0 | 0.00 | 0.00 | 0.00 | 94 | 1015.3 |
| 20260905030521 | 78 | 223 | 0.0 | 0.0 | 0.00 | 0.00 | 0.00 | 94 | 1015.3 |
| 20260905030020 | 78 | 223 | 0.0 | 0.0 | 0.00 | 0.00 | 0.00 | 94 | 1015.4 |
| 20260905025515 | 78 | 223 | 0.0 | 0.0 | 0.00 | 0.00 | 0.00 | 94 | 1015.5 |
| 20260905025012 | 78 | 223 | 0.0 | 0.0 | 0.00 | 0.00 | 0.00 | 94 | 1015.3 |
| 20260905024508 | 78 | 221 | 0.0 | 0.0 | 0.00 | 0.00 | 0.00 | 93 | 1015.5 |
| 20260905024003 | 78 | 221 | 0.0 | 0.0 | 0.00 | 0.00 | 0.00 | 93 | 1015.2 |
| 20260905023503 | 78 | 221 | 0.0 | 0.0 | 0.00 | 0.00 | 0.00 | 93 | 1015.4 |
| 20260905023001 | 78 | 221 | 0.0 | 0.0 | 0.00 | 0.00 | 0.00 | 93 | 1015.1 |
| 20260905022457 | 78 | 221 | 0.0 | 0.0 | 0.00 | 0.00 | 0.00 | 92 | 1015.3 |
| 20260905021953 | 79 | 221 | 0.0 | 0.0 | 0.00 | 0.00 | 0.00 | 92 | 1015.2 |
| 20260905021452 | 79 | 221 | 0.0 | 0.0 | 0.00 | 0.00 | 0.00 | 92 | 1015.3 |
| 20260905020948 | 79 | 221 | 0.0 | 0.0 | 0.00 | 0.00 | 0.00 | 92 | 1015.2 |
| 20260905020447 | 79 | 221 | 0.0 | 0.0 | 0.00 | 0.00 | 0.00 | 91 | 1015.2 |
| 20260905015942 | 80 | 221 | 0.0 | 0.0 | 0.00 | 0.00 | 0.00 | 91 | 1015.2 |
| 20260905015440 | 80 | 221 | 0.0 | 0.0 | 0.00 | 0.00 | 0.00 | 91 | 1015.2 |
| 20260905014939 | 80 | 221 | 0.0 | 0.0 | 0.00 | 0.00 | 0.00 | 91 | 1015.1 |
| 20260905014435 | 80 | 221 | 0.0 | 0.0 | 0.00 | 0.00 | 0.00 | 90 | 1015.0 |
| 20260905013930 | 80 | 221 | 0.0 | 0.0 | 0.00 | 0.00 | 0.00 | 90 | 1015.0 |
| 20260905013427 | 80 | 221 | 0.0 | 0.0 | 0.00 | 0.00 | 0.00 | 89 | 1015.0 |
| 20260905012927 | 80 | 221 | 0.0 | 0.0 | 0.00 | 0.00 | 0.00 | 89 | 1014.9 |
| 20260905012422 | 80 | 221 | 0.0 | 0.0 | 0.00 | 0.00 | 0.00 | 89 | 1015.0 |
| 20260905011919 | 81 | 221 | 0.0 | 0.0 | 0.00 | 0.00 | 0.00 | 88 | 1014.8 |
| 20260905011414 | 81 | 221 | 0.0 | 0.0 | 0.00 | 0.00 | 0.00 | 87 | 1014.9 |
| 20260905010909 | 81 | 221 | 0.0 | 0.0 | 0.00 | 0.00 | 0.00 | 86 | 1014.8 |
| 20260905010405 | 82 | 221 | 0.0 | 0.0 | 0.00 | 0.00 | 0.00 | 85 | 1014.9 |
| 20260905005901 | 82 | 221 | 0.0 | 0.0 | 0.00 | 0.00 | 0.00 | 85 | 1014.8 |
| 20260905005356 | 82 | 221 | 0.0 | 0.0 | 0.00 | 0.00 | 0.00 | 85 | 1014.8 |
| 20260905004851 | 82 | 221 | 0.0 | 0.0 | 0.00 | 0.00 | 0.00 | 84 | 1014.5 |
| 20260905004346 | 82 | 221 | 0.0 | 0.0 | 0.00 | 0.00 | 0.00 | 85 | 1014.4 |
| 20260905003842 | 83 | 221 | 0.0 | 0.0 | 0.00 | 0.00 | 0.00 | 85 | 1014.4 |
| 20260905003337 | 84 | 221 | 0.0 | 0.0 | 0.00 | 0.00 | 0.00 | 84 | 1014.3 |
| 20260905002833 | 84 | 221 | 0.0 | 0.0 | 0.00 | 0.00 | 0.00 | 81 | 1014.3 |
| 20260905002332 | 85 | 221 | 0.0 | 0.0 | 0.00 | 0.00 | 0.00 | 80 | 1014.3 |
| 20260905001827 | 85 | 221 | 0.0 | 0.0 | 0.00 | 0.00 | 0.00 | 79 | 1014.2 |
| 20260905001326 | 86 | 221 | 0.0 | 0.0 | 0.00 | 0.00 | 0.00 | 77 | 1014.5 |
| 20260905000822 | 87 | 221 | 0.0 | 0.0 | 0.00 | 0.00 | 0.00 | 76 | 1014.4 |
| 20260905000318 | 87 | 221 | 0.0 | 0.0 | 0.00 | 0.00 | 0.00 | 75 | 1014.3 |
| 20260904235812 | 88 | 221 | 0.0 | 0.0 | 0.00 | 0.00 | 0.00 | 72 | 1014.3 |
| 20260904235308 | 89 | 221 | 0.0 | 0.0 | 0.00 | 0.00 | 0.00 | 71 | 1014.3 |
| 20260904234802 | 89 | 221 | 0.0 | 0.0 | 0.00 | 0.00 | 0.00 | 70 | 1014.2 |
| 20260904234252 | 89 | 219 | 0.0 | 0.0 | 0.00 | 0.00 | 0.00 | 69 | 1014.2 |
| 20260904233748 | 89 | 219 | 0.0 | 0.0 | 0.00 | 0.00 | 0.00 | 69 | 1014.2 |
| 20260904233244 | 90 | 219 | 0.0 | 0.0 | 0.00 | 0.00 | 0.00 | 67 | 1014.2 |
| 20260904232740 | 90 | 219 | 0.0 | 0.0 | 0.00 | 0.00 | 0.00 | 67 | 1014.4 |
| 20260904232236 | 91 | 219 | 0.0 | 0.0 | 0.00 | 0.00 | 0.00 | 67 | 1014.3 |
| 20260904231731 | 91 | 219 | 0.0 | 0.0 | 0.00 | 0.00 | 0.00 | 65 | 1014.3 |
| 20260904231227 | 91 | 218 | 0.0 | 0.0 | 0.00 | 0.00 | 0.00 | 65 | 1014.3 |
| 20260904230727 | 92 | 228 | 0.0 | 0.0 | 0.00 | 0.00 | 0.00 | 64 | 1014.3 |
| 20260904230221 | 92 | 232 | 0.0 | 0.0 | 0.00 | 0.00 | 0.00 | 64 | 1014.3 |
| 20260904225720 | 92 | 236 | 0.0 | 1.0 | 0.00 | 0.00 | 0.00 | 63 | 1014.3 |
| 20260904225215 | 92 | 240 | 0.0 | 1.0 | 0.00 | 0.00 | 0.00 | 63 | 1014.4 |
| 20260904224714 | 92 | 236 | 1.0 | 1.0 | 0.00 | 0.00 | 0.00 | 63 | 1014.2 |
| 20260904224209 | 93 | 223 | 0.0 | 0.0 | 0.00 | 0.00 | 0.00 | 63 | 1014.5 |
| 20260904223708 | 93 | 225 | 0.0 | 1.0 | 0.00 | 0.00 | 0.00 | 61 | 1014.4 |
| 20260904223203 | 93 | 226 | 1.0 | 1.0 | 0.00 | 0.00 | 0.00 | 60 | 1014.5 |
| 20260904222658 | 93 | 228 | 0.0 | 0.0 | 0.00 | 0.00 | 0.00 | 58 | 1014.4 |
| 20260904222154 | 93 | 225 | 1.0 | 1.0 | 0.00 | 0.00 | 0.00 | 57 | 1014.5 |
| 20260904221653 | 94 | 232 | 0.0 | 0.0 | 0.00 | 0.00 | 0.00 | 58 | 1014.5 |
| 20260904221149 | 94 | 236 | 0.0 | 1.0 | 0.00 | 0.00 | 0.00 | 57 | 1014.5 |
| 20260904220643 | 95 | 238 | 0.0 | 0.0 | 0.00 | 0.00 | 0.00 | 58 | 1014.6 |
| 20260904220138 | 95 | 267 | 0.0 | 0.0 | 0.00 | 0.00 | 0.00 | 55 | 1014.8 |
| 20260904215633 | 95 | 283 | 0.0 | 0.0 | 0.00 | 0.00 | 0.00 | 55 | 1014.8 |
| 20260904215129 | 95 | 279 | 0.0 | 0.0 | 0.00 | 0.00 | 0.00 | 57 | 1014.6 |
| 20260904214629 | 94 | 280 | 0.0 | 0.0 | 0.00 | 0.00 | 0.00 | 55 | 1014.8 |
| 20260904214125 | 94 | 351 | 1.0 | 2.0 | 0.00 | 0.00 | 0.00 | 54 | 1014.5 |
| 20260904213622 | 94 | 248 | 0.0 | 0.0 | 0.00 | 0.00 | 0.00 | 57 | 1014.9 |
| 20260904213120 | 93 | 261 | 0.0 | 0.0 | 0.00 | 0.00 | 0.00 | 62 | 1014.9 |
| 20260904212619 | 93 | 275 | 0.0 | 0.0 | 0.00 | 0.00 | 0.00 | 60 | 1014.9 |
| 20260904212114 | 92 | 275 | 0.0 | 0.0 | 0.00 | 0.00 | 0.00 | 60 | 1014.8 |
| 20260904211615 | 93 | 277 | 0.0 | 0.0 | 0.00 | 0.00 | 0.00 | 60 | 1014.9 |
| 20260904211110 | 93 | 277 | 0.0 | 0.0 | 0.00 | 0.00 | 0.00 | 62 | 1014.9 |
| 20260904210609 | 93 | 278 | 0.0 | 0.0 | 0.00 | 0.00 | 0.00 | 58 | 1014.8 |
| 20260904210105 | 94 | 278 | 0.0 | 0.0 | 0.00 | 0.00 | 0.00 | 56 | 1015.0 |
| 20260904205600 | 94 | 280 | 0.0 | 0.0 | 0.00 | 0.00 | 0.00 | 53 | 1014.9 |
| 20260904205056 | 95 | 316 | 1.0 | 1.0 | 0.00 | 0.00 | 0.00 | 54 | 1015.2 |
| 20260904204552 | 95 | 241 | 0.0 | 0.0 | 0.00 | 0.00 | 0.00 | 56 | 1015.0 |
| 20260904204048 | 95 | 234 | 1.0 | 1.0 | 0.00 | 0.00 | 0.00 | 55 | 1015.1 |
| 20260904203544 | 95 | 279 | 0.0 | 0.0 | 0.00 | 0.00 | 0.00 | 53 | 1015.1 |
| 20260904203040 | 95 | 241 | 0.0 | 0.0 | 0.00 | 0.00 | 0.00 | 53 | 1015.4 |
| 20260904202536 | 95 | 239 | 0.0 | 0.0 | 0.00 | 0.00 | 0.00 | 54 | 1015.4 |
| 20260904202032 | 95 | 246 | 0.0 | 0.0 | 0.00 | 0.00 | 0.00 | 54 | 1015.4 |
| 20260904201527 | 95 | 200 | 2.0 | 2.0 | 0.00 | 0.00 | 0.00 | 54 | 1015.5 |
| 20260904201022 | 94 | 216 | 2.0 | 2.0 | 0.00 | 0.00 | 0.00 | 55 | 1015.6 |
| 20260904200520 | 94 | 270 | 0.0 | 0.0 | 0.00 | 0.00 | 0.00 | 56 | 1015.7 |
| 20260904200016 | 94 | 59 | 1.0 | 2.0 | 0.00 | 0.00 | 0.00 | 58 | 1015.6 |
| 20260904195514 | 93 | 348 | 1.0 | 1.0 | 0.00 | 0.00 | 0.00 | 59 | 1015.7 |
| 20260904195014 | 92 | 285 | 0.0 | 1.0 | 0.00 | 0.00 | 0.00 | 57 | 1015.8 |
| 20260904194509 | 93 | 66 | 2.0 | 2.0 | 0.00 | 0.00 | 0.00 | 57 | 1015.9 |
| 20260904194003 | 94 | 20 | 2.0 | 2.0 | 0.00 | 0.00 | 0.00 | 56 | 1016.0 |
| 20260904193458 | 94 | 345 | 1.0 | 2.0 | 0.00 | 0.00 | 0.00 | 56 | 1016.1 |
| 20260904192954 | 94 | 331 | 1.0 | 1.0 | 0.00 | 0.00 | 0.00 | 55 | 1016.2 |
| 20260904192454 | 97 | 320 | 2.0 | 2.0 | 0.00 | 0.00 | 0.00 | 54 | 1016.2 |
| 20260904191950 | 99 | 313 | 1.0 | 1.0 | 0.00 | 0.00 | 0.00 | 50 | 1016.3 |
| 20260904191447 | 98 | 248 | 0.0 | 1.0 | 0.00 | 0.00 | 0.00 | 52 | 1016.3 |
| 20260904190943 | 98 | 310 | 0.0 | 0.0 | 0.00 | 0.00 | 0.00 | 52 | 1016.7 |
| 20260904190438 | 98 | 241 | 1.0 | 1.0 | 0.00 | 0.00 | 0.00 | 50 | 1016.6 |
| 20260904185934 | 98 | 253 | 0.0 | 0.0 | 0.00 | 0.00 | 0.00 | 50 | 1016.8 |
| 20260904185430 | 98 | 276 | 0.0 | 1.0 | 0.00 | 0.00 | 0.00 | 50 | 1016.4 |
| 20260904184924 | 98 | 254 | 0.0 | 0.0 | 0.00 | 0.00 | 0.00 | 49 | 1016.6 |
| 20260904184419 | 96 | 254 | 0.0 | 0.0 | 0.00 | 0.00 | 0.00 | 53 | 1016.6 |
| 20260904183914 | 96 | 265 | 0.0 | 0.0 | 0.00 | 0.00 | 0.00 | 55 | 1016.8 |
| 20260904183410 | 95 | 1 | 1.0 | 1.0 | 0.00 | 0.00 | 0.00 | 52 | 1017.0 |
| 20260904182906 | 96 | 268 | 0.0 | 0.0 | 0.00 | 0.00 | 0.00 | 53 | 1017.0 |